Time;durP1;ratioP1;P1;durP2;ratioP2;P2;SDS_P1;SDS_P2;PMS_P1;PMS_P2;Temp;Humidity;BMP_temperature;BMP_pressure;BME280_temperature;BME280_humidity;BME280_pressure;Samples;Min_cycle;Max_cycle;Signal;HPM_P1;HPM_P2
2021/07/29 00:00:19;;;;;;;3.38;2.72;;;17.30;92.60;;;;;;5000742;28;20112;-81
2021/07/29 00:02:45;;;;;;;4.93;2.45;;;17.30;92.90;;;;;;5005157;28;20028;-81
2021/07/29 00:05:10;;;;;;;4.00;2.45;;;17.20;93.40;;;;;;5009408;28;20112;-81
2021/07/29 00:07:36;;;;;;;4.95;2.67;;;17.20;93.40;;;;;;4996873;28;20049;-80
2021/07/29 00:10:03;;;;;;;4.15;2.78;;;17.10;93.50;;;;;;4999119;28;20030;-81
2021/07/29 00:12:29;;;;;;;2.90;2.60;;;17.10;93.40;;;;;;4993112;28;20121;-81
2021/07/29 00:14:54;;;;;;;3.28;2.20;;;17.10;93.60;;;;;;4999926;28;20108;-81
2021/07/29 00:19:01;;;;;;;3.83;2.50;;;17.10;93.20;;;;;;5010142;28;20025;-81
2021/07/29 00:20:22;;;;;;;3.13;2.83;;;17.10;93.40;;;;;;5010338;28;20168;-81
2021/07/29 00:22:49;;;;;;;2.97;2.25;;;16.90;93.50;;;;;;5002720;28;20034;-81
2021/07/29 00:25:15;;;;;;;3.08;2.53;;;17.00;93.80;;;;;;5014544;28;20400;-81
2021/07/29 00:27:41;;;;;;;4.43;2.33;;;16.90;94.10;;;;;;5006736;28;20029;-81
2021/07/29 00:30:07;;;;;;;3.25;2.45;;;16.80;94.30;;;;;;4997880;28;20038;-82
2021/07/29 00:32:32;;;;;;;4.15;2.70;;;16.80;94.30;;;;;;5002117;28;20037;-82
2021/07/29 00:34:58;;;;;;;3.67;2.58;;;16.90;94.10;;;;;;5013645;28;20038;-81
2021/07/29 00:37:24;;;;;;;3.00;2.35;;;16.80;94.50;;;;;;5013404;28;20702;-81
2021/07/29 00:39:49;;;;;;;3.50;2.58;;;16.90;94.50;;;;;;4996969;28;20029;-81
2021/07/29 00:42:15;;;;;;;4.32;2.75;;;16.80;94.50;;;;;;5003289;28;20033;-81
2021/07/29 00:44:40;;;;;;;3.58;2.75;;;16.90;94.50;;;;;;4993583;28;20453;-81
2021/07/29 00:47:06;;;;;;;3.00;2.72;;;16.70;94.70;;;;;;5023270;28;20042;-82
2021/07/29 00:49:35;;;;;;;3.35;2.70;;;16.70;94.30;;;;;;5006076;28;20664;-82
2021/07/29 00:52:01;;;;;;;3.67;2.75;;;16.70;94.60;;;;;;5005772;28;20029;-82
2021/07/29 00:54:29;;;;;;;3.30;2.92;;;16.70;94.80;;;;;;4996745;28;20480;-82
2021/07/29 00:56:56;;;;;;;4.32;3.13;;;16.70;94.60;;;;;;4998009;28;20560;-83
2021/07/29 00:59:21;;;;;;;4.63;2.95;;;16.70;94.50;;;;;;5018571;28;20038;-82
2021/07/29 01:01:47;;;;;;;3.30;2.72;;;16.70;94.90;;;;;;5005662;28;20056;-82
2021/07/29 01:04:12;;;;;;;4.80;2.60;;;16.60;94.90;;;;;;5005982;28;20032;-82
2021/07/29 01:06:38;;;;;;;4.75;2.58;;;16.70;94.90;;;;;;5013844;28;20030;-82
2021/07/29 01:09:09;;;;;;;3.13;2.30;;;16.70;94.90;;;;;;5016364;28;20091;-82
2021/07/29 01:11:35;;;;;;;2.80;2.30;;;16.70;95.10;;;;;;5011343;28;20030;-82
2021/07/29 01:14:01;;;;;;;3.70;2.60;;;16.40;95.10;;;;;;5001723;28;20079;-81
2021/07/29 01:16:26;;;;;;;4.55;2.55;;;16.50;95.30;;;;;;4996955;28;20037;-83
2021/07/29 01:18:52;;;;;;;3.13;1.48;;;16.50;95.40;;;;;;4997936;28;20308;-83
2021/07/29 01:21:17;;;;;;;2.35;2.08;;;16.60;95.60;;;;;;5016637;28;20032;-83
2021/07/29 01:23:44;;;;;;;2.30;1.70;;;16.40;95.60;;;;;;4989708;28;20396;-82
2021/07/29 01:26:09;;;;;;;2.20;1.30;;;16.40;95.60;;;;;;5016888;28;20084;-82
2021/07/29 01:28:35;;;;;;;3.47;2.70;;;16.30;95.70;;;;;;4997803;28;20037;-82
2021/07/29 01:31:00;;;;;;;5.35;2.22;;;16.30;95.60;;;;;;4994919;28;20025;-83
2021/07/29 01:33:26;;;;;;;3.28;2.20;;;16.30;95.70;;;;;;4998592;28;20033;-83
2021/07/29 01:35:51;;;;;;;2.20;1.63;;;16.30;95.70;;;;;;4993654;28;20029;-83
2021/07/29 01:38:17;;;;;;;5.85;2.38;;;16.30;95.60;;;;;;4995616;28;20045;-83
2021/07/29 01:40:42;;;;;;;4.55;2.30;;;16.30;95.70;;;;;;5000826;28;20038;-83
2021/07/29 01:43:08;;;;;;;2.25;2.05;;;16.40;95.60;;;;;;5016760;28;20034;-82
2021/07/29 01:45:33;;;;;;;5.50;2.78;;;16.20;95.70;;;;;;5001979;28;20036;-83
2021/07/29 01:47:59;;;;;;;4.05;2.50;;;16.20;95.70;;;;;;5021183;28;20156;-83
2021/07/29 01:50:25;;;;;;;5.88;2.50;;;16.10;95.80;;;;;;5031480;28;20392;-82
2021/07/29 01:52:50;;;;;;;3.88;3.38;;;16.20;95.90;;;;;;5010647;28;20548;-82
2021/07/29 01:55:16;;;;;;;5.00;2.55;;;16.10;95.80;;;;;;5010176;28;20038;-82
2021/07/29 01:57:41;;;;;;;3.20;2.15;;;16.10;95.80;;;;;;4991753;28;20151;-82
2021/07/29 02:00:07;;;;;;;3.70;2.17;;;16.10;96.10;;;;;;5007120;28;20042;-83
2021/07/29 02:02:33;;;;;;;2.70;2.10;;;16.00;95.90;;;;;;5000491;28;20135;-83
2021/07/29 02:04:58;;;;;;;3.15;2.17;;;16.00;96.00;;;;;;4996032;28;20486;-83
2021/07/29 02:07:24;;;;;;;6.38;2.03;;;15.90;96.30;;;;;;5009692;28;20129;-83
2021/07/29 02:09:49;;;;;;;2.95;2.00;;;15.90;96.10;;;;;;5003609;28;20033;-83
2021/07/29 02:12:15;;;;;;;5.53;2.30;;;16.00;96.10;;;;;;5016577;28;20029;-84
2021/07/29 02:14:40;;;;;;;2.13;1.70;;;15.90;96.20;;;;;;4994246;28;20409;-83
2021/07/29 02:17:06;;;;;;;6.40;2.63;;;15.90;96.20;;;;;;4991127;28;20579;-83
2021/07/29 02:19:32;;;;;;;4.10;2.50;;;15.90;96.30;;;;;;4992882;28;20033;-83
2021/07/29 02:21:58;;;;;;;4.65;3.88;;;15.90;95.90;;;;;;4994647;28;20064;-83
2021/07/29 02:24:23;;;;;;;3.58;2.03;;;16.00;96.00;;;;;;5003020;28;20029;-83
2021/07/29 02:26:49;;;;;;;5.13;2.83;;;15.80;96.00;;;;;;5005731;28;20048;-83
2021/07/29 02:29:14;;;;;;;3.53;2.47;;;15.80;96.40;;;;;;5005727;28;20500;-84
2021/07/29 02:31:40;;;;;;;3.70;1.92;;;15.70;96.30;;;;;;5012070;28;20030;-83
2021/07/29 02:34:05;;;;;;;4.80;2.40;;;15.80;96.40;;;;;;4994544;28;20033;-83
2021/07/29 02:36:31;;;;;;;2.67;2.10;;;15.80;96.30;;;;;;5015636;28;20025;-83
2021/07/29 02:38:56;;;;;;;4.72;2.30;;;15.70;96.20;;;;;;4997238;28;20028;-83
2021/07/29 02:41:22;;;;;;;3.88;2.15;;;15.70;96.20;;;;;;5001934;28;20316;-83
2021/07/29 02:43:48;;;;;;;3.10;2.10;;;15.70;96.00;;;;;;4985235;28;20037;-83
2021/07/29 02:46:13;;;;;;;2.88;2.58;;;15.70;96.20;;;;;;5025071;28;20021;-83
2021/07/29 02:48:39;;;;;;;3.75;2.53;;;15.60;96.10;;;;;;5001570;28;20413;-83
2021/07/29 02:51:04;;;;;;;3.67;2.58;;;15.50;96.20;;;;;;4991511;28;20030;-83
2021/07/29 02:53:33;;;;;;;4.95;2.55;;;15.60;96.20;;;;;;5019106;28;20065;-83
2021/07/29 02:55:59;;;;;;;5.28;2.47;;;15.60;96.60;;;;;;4993466;28;20040;-83
2021/07/29 02:58:25;;;;;;;2.55;2.17;;;15.50;96.30;;;;;;5011395;28;20489;-83
2021/07/29 03:00:51;;;;;;;8.18;2.38;;;15.50;96.20;;;;;;5005386;28;20832;-83
2021/07/29 03:03:17;;;;;;;3.67;2.42;;;15.50;96.30;;;;;;4995786;28;20087;-83
2021/07/29 03:05:43;;;;;;;4.82;1.88;;;15.60;96.40;;;;;;4991717;28;20064;-83
2021/07/29 03:08:08;;;;;;;4.85;2.40;;;15.40;96.40;;;;;;5013569;28;20033;-83
2021/07/29 03:10:34;;;;;;;6.03;2.30;;;15.40;96.30;;;;;;4993498;28;20029;-83
2021/07/29 03:13:01;;;;;;;4.32;2.55;;;15.30;96.40;;;;;;4998922;28;20107;-82
2021/07/29 03:15:30;;;;;;;7.90;2.40;;;15.20;96.60;;;;;;5010630;28;20029;-83
2021/07/29 03:17:55;;;;;;;4.28;2.47;;;15.30;96.50;;;;;;4990882;28;20516;-83
2021/07/29 03:20:21;;;;;;;1.60;1.50;;;15.30;96.70;;;;;;5034066;28;20034;-83
2021/07/29 03:22:47;;;;;;;3.83;2.83;;;15.30;96.60;;;;;;4990403;28;20504;-82
2021/07/29 03:25:12;;;;;;;5.65;2.30;;;15.20;96.80;;;;;;4989282;28;20752;-83
2021/07/29 03:27:38;;;;;;;3.75;2.17;;;15.20;96.70;;;;;;5000764;28;20401;-83
2021/07/29 03:30:04;;;;;;;7.18;3.03;;;15.20;96.90;;;;;;4987642;28;20493;-83
2021/07/29 03:32:29;;;;;;;4.80;2.63;;;15.10;96.80;;;;;;5026728;28;20034;-83
2021/07/29 03:34:55;;;;;;;2.58;1.80;;;15.20;97.10;;;;;;5001064;28;20029;-83
2021/07/29 03:37:20;;;;;;;4.97;2.25;;;15.00;97.00;;;;;;4992572;28;20550;-83
2021/07/29 03:39:46;;;;;;;3.95;2.92;;;15.00;97.00;;;;;;5015753;28;20025;-83
2021/07/29 03:42:11;;;;;;;6.45;2.92;;;15.00;97.00;;;;;;4999278;28;20421;-83
2021/07/29 03:44:37;;;;;;;6.53;3.05;;;14.90;96.90;;;;;;4998068;28;20117;-83
2021/07/29 03:47:03;;;;;;;5.28;2.05;;;15.00;97.40;;;;;;5011740;28;20052;-83
2021/07/29 03:49:28;;;;;;;7.15;3.00;;;15.00;97.10;;;;;;4992866;28;20045;-83
2021/07/29 03:51:54;;;;;;;3.53;1.92;;;15.10;96.90;;;;;;4992026;28;20021;-83
2021/07/29 03:54:19;;;;;;;3.47;2.33;;;14.90;97.00;;;;;;5008271;28;20057;-83
2021/07/29 03:56:45;;;;;;;4.05;2.40;;;14.90;97.30;;;;;;4996758;28;20148;-83
2021/07/29 03:59:10;;;;;;;9.23;3.38;;;15.00;97.00;;;;;;4996523;28;20044;-83
2021/07/29 04:01:36;;;;;;;12.00;2.63;;;15.10;97.30;;;;;;5004225;28;20053;-83
2021/07/29 04:04:02;;;;;;;4.07;2.67;;;14.90;97.10;;;;;;4997674;28;20037;-83
2021/07/29 04:06:27;;;;;;;10.93;3.03;;;15.10;97.20;;;;;;4996361;28;20026;-83
2021/07/29 04:08:53;;;;;;;2.90;1.85;;;15.10;97.10;;;;;;4990950;28;20036;-84
2021/07/29 04:11:18;;;;;;;5.82;2.38;;;15.20;97.10;;;;;;5008626;28;20338;-83
2021/07/29 04:13:44;;;;;;;2.80;1.75;;;15.20;97.20;;;;;;5003658;28;20404;-83
2021/07/29 04:16:09;;;;;;;5.13;2.80;;;15.10;97.20;;;;;;5003141;28;20042;-83
2021/07/29 04:18:36;;;;;;;6.43;2.60;;;15.10;97.30;;;;;;4996489;28;20030;-82
2021/07/29 04:21:01;;;;;;;7.85;2.53;;;15.30;97.30;;;;;;5017486;28;20120;-84
2021/07/29 04:23:27;;;;;;;4.53;2.50;;;15.20;97.10;;;;;;5001599;28;20120;-81
2021/07/29 04:25:53;;;;;;;4.60;1.88;;;15.20;97.10;;;;;;4999974;28;20037;-82
2021/07/29 04:28:18;;;;;;;5.82;2.38;;;15.30;97.20;;;;;;4991973;28;20036;-84
2021/07/29 04:30:44;;;;;;;7.00;1.67;;;15.30;97.20;;;;;;4997260;28;20053;-84
2021/07/29 04:33:09;;;;;;;9.05;2.50;;;15.30;97.20;;;;;;5002016;28;20033;-83
2021/07/29 04:35:38;;;;;;;5.45;2.20;;;15.40;97.40;;;;;;4999843;28;20060;-83
2021/07/29 04:38:03;;;;;;;3.20;2.10;;;15.40;97.40;;;;;;4994515;28;20038;-82
2021/07/29 04:40:29;;;;;;;6.20;2.72;;;15.40;97.20;;;;;;5027522;28;20117;-83
2021/07/29 04:42:55;;;;;;;8.75;2.58;;;15.50;97.20;;;;;;4998219;28;20034;-82
2021/07/29 04:45:20;;;;;;;5.05;2.65;;;15.50;97.10;;;;;;5011633;28;20401;-83
2021/07/29 04:47:46;;;;;;;2.25;1.67;;;15.50;96.90;;;;;;5000474;28;20042;-83
2021/07/29 04:50:11;;;;;;;7.72;2.88;;;15.50;96.90;;;;;;5000719;28;20653;-84
2021/07/29 04:52:37;;;;;;;5.15;2.03;;;15.50;96.80;;;;;;4993658;28;20034;-83
2021/07/29 04:55:02;;;;;;;6.00;1.77;;;15.50;96.90;;;;;;5011643;28;20059;-84
2021/07/29 04:57:28;;;;;;;8.10;3.03;;;15.40;97.20;;;;;;4994337;28;20599;-82
2021/07/29 04:59:53;;;;;;;4.50;2.65;;;15.40;97.10;;;;;;4995306;28;20400;-84
2021/07/29 05:02:19;;;;;;;6.18;1.73;;;15.60;97.00;;;;;;4998998;28;20396;-83
2021/07/29 05:04:44;;;;;;;5.25;2.38;;;15.60;96.90;;;;;;4998042;28;20499;-82
2021/07/29 05:07:13;;;;;;;7.45;1.48;;;15.70;96.90;;;;;;5008292;28;20044;-83
2021/07/29 05:09:38;;;;;;;7.50;1.45;;;15.70;96.70;;;;;;5012567;28;20037;-83
2021/07/29 05:12:04;;;;;;;3.85;1.35;;;15.80;96.50;;;;;;4995754;28;20488;-82
2021/07/29 05:14:30;;;;;;;2.88;1.38;;;15.90;96.60;;;;;;5026976;28;20432;-83
2021/07/29 05:17:00;;;;;;;8.27;2.13;;;16.00;96.60;;;;;;4996209;28;20033;-83
2021/07/29 05:19:26;;;;;;;7.15;2.38;;;16.10;96.10;;;;;;5016003;28;20088;-83
2021/07/29 05:21:51;;;;;;;8.38;1.83;;;16.10;95.90;;;;;;5011275;28;20033;-84
2021/07/29 05:24:17;;;;;;;2.83;1.58;;;16.10;95.80;;;;;;5004504;28;20071;-83
2021/07/29 05:26:43;;;;;;;8.60;2.88;;;16.10;95.90;;;;;;4995961;28;20313;-83
2021/07/29 05:29:08;;;;;;;5.97;2.55;;;16.30;95.60;;;;;;5009405;28;20029;-84
2021/07/29 05:31:36;;;;;;;5.65;2.17;;;16.30;95.50;;;;;;4997095;28;20022;-84
2021/07/29 05:34:02;;;;;;;8.27;2.00;;;16.30;95.40;;;;;;5007344;28;20056;-83
2021/07/29 05:36:28;;;;;;;6.05;1.92;;;16.40;95.70;;;;;;4991558;28;20479;-83
2021/07/29 05:38:53;;;;;;;4.93;1.80;;;16.60;95.40;;;;;;4996478;28;20045;-83
2021/07/29 05:41:19;;;;;;;6.53;1.55;;;16.60;94.90;;;;;;4997879;28;20037;-85
2021/07/29 05:43:44;;;;;;;10.25;2.33;;;16.60;95.00;;;;;;5007813;28;20616;-84
2021/07/29 05:46:11;;;;;;;5.47;1.50;;;16.70;94.70;;;;;;5019790;28;20109;-83
2021/07/29 05:48:37;;;;;;;3.25;1.60;;;16.70;94.50;;;;;;5009362;28;20489;-84
2021/07/29 05:51:02;;;;;;;2.88;1.77;;;16.80;95.00;;;;;;4994395;28;20128;-84
2021/07/29 05:53:28;;;;;;;4.68;1.80;;;17.00;94.70;;;;;;5019144;28;20383;-84
2021/07/29 05:55:56;;;;;;;4.15;1.20;;;17.00;94.30;;;;;;4992767;28;20021;-84
2021/07/29 05:58:24;;;;;;;6.78;1.63;;;17.00;93.90;;;;;;4992198;28;20125;-85
2021/07/29 06:00:49;;;;;;;4.80;1.58;;;17.30;94.00;;;;;;5006089;28;20121;-84
2021/07/29 06:03:15;;;;;;;7.95;2.70;;;17.30;94.10;;;;;;5006880;28;20545;-84
2021/07/29 06:05:41;;;;;;;4.15;1.58;;;17.20;93.60;;;;;;4998193;28;20029;-84
2021/07/29 06:08:06;;;;;;;3.10;1.25;;;17.40;93.30;;;;;;4997264;28;20036;-85
2021/07/29 06:10:33;;;;;;;1.40;1.15;;;17.40;93.50;;;;;;5010004;28;20029;-84
2021/07/29 06:12:58;;;;;;;5.85;2.28;;;17.40;93.30;;;;;;4993185;28;20030;-84
2021/07/29 06:15:24;;;;;;;3.03;1.65;;;17.40;93.00;;;;;;5010100;28;20401;-85
2021/07/29 06:17:56;;;;;;;4.60;1.33;;;17.40;93.20;;;;;;5011703;28;20044;-84
2021/07/29 06:20:21;;;;;;;7.75;1.88;;;17.30;93.20;;;;;;5009580;28;20033;-85
2021/07/29 06:22:47;;;;;;;3.75;1.00;;;17.50;92.70;;;;;;5001146;28;20087;-84
2021/07/29 06:25:13;;;;;;;5.70;1.10;;;17.50;92.40;;;;;;4998542;28;20485;-84
2021/07/29 06:27:52;;;;;;;1.98;1.05;;;17.70;92.50;;;;;;4999399;28;20035;-85
2021/07/29 06:30:17;;;;;;;3.85;1.27;;;17.90;92.30;;;;;;4999629;28;20057;-84
2021/07/29 06:32:43;;;;;;;5.13;2.20;;;17.80;91.80;;;;;;4994607;28;20500;-85
2021/07/29 06:35:09;;;;;;;6.80;1.95;;;17.70;92.10;;;;;;5000872;28;20352;-84
2021/07/29 06:37:35;;;;;;;4.45;1.58;;;18.10;92.10;;;;;;4999701;28;20045;-85
2021/07/29 06:40:00;;;;;;;5.25;0.98;;;18.00;91.40;;;;;;4997482;28;20056;-84
2021/07/29 06:42:26;;;;;;;5.80;1.75;;;18.10;91.30;;;;;;4999277;28;20394;-84
2021/07/29 06:44:51;;;;;;;2.75;1.02;;;18.00;91.50;;;;;;4986543;28;20485;-85
2021/07/29 06:47:21;;;;;;;4.43;1.33;;;17.90;91.30;;;;;;5031530;28;20101;-85
2021/07/29 06:49:47;;;;;;;4.72;2.10;;;18.30;91.30;;;;;;5002129;28;20503;-85
2021/07/29 06:52:13;;;;;;;3.42;1.20;;;18.50;90.90;;;;;;4994707;28;20037;-85
2021/07/29 06:54:38;;;;;;;3.88;1.52;;;18.50;90.80;;;;;;5008726;28;20547;-85
2021/07/29 06:57:07;;;;;;;7.18;1.90;;;18.70;90.70;;;;;;4997936;28;20291;-84
2021/07/29 06:59:33;;;;;;;6.03;1.85;;;18.60;90.50;;;;;;5004222;28;20053;-84
2021/07/29 07:01:59;;;;;;;5.95;2.15;;;18.70;91.20;;;;;;5017822;28;20404;-85
2021/07/29 07:04:24;;;;;;;5.82;1.52;;;18.90;90.40;;;;;;4998615;28;20030;-84
2021/07/29 07:06:50;;;;;;;8.57;1.52;;;19.20;90.60;;;;;;5004718;28;20030;-85
2021/07/29 07:09:15;;;;;;;4.00;1.40;;;19.20;90.20;;;;;;5019236;28;20026;-84
2021/07/29 07:11:41;;;;;;;4.15;1.90;;;19.10;89.70;;;;;;5018980;28;20129;-85
2021/07/29 07:14:06;;;;;;;6.10;1.50;;;19.20;90.20;;;;;;5015198;28;20048;-84
2021/07/29 07:16:33;;;;;;;4.35;2.33;;;19.30;88.50;;;;;;4996463;28;20060;-85
2021/07/29 07:18:59;;;;;;;6.88;1.60;;;19.10;88.40;;;;;;4995487;28;20029;-85
2021/07/29 07:21:24;;;;;;;4.03;1.30;;;19.10;89.40;;;;;;5002764;28;20030;-84
2021/07/29 07:23:50;;;;;;;1.85;0.98;;;19.40;87.70;;;;;;5001723;28;20029;-84
2021/07/29 07:26:20;;;;;;;3.08;1.08;;;19.60;88.50;;;;;;5004019;28;20111;-84
2021/07/29 07:28:49;;;;;;;4.15;2.17;;;19.70;88.00;;;;;;4996770;28;20029;-85
2021/07/29 07:31:15;;;;;;;5.03;1.40;;;19.50;86.40;;;;;;5015884;28;20517;-85
2021/07/29 07:33:40;;;;;;;2.13;1.17;;;19.60;86.50;;;;;;4990085;28;20030;-83
2021/07/29 07:36:06;;;;;;;7.18;1.25;;;19.40;85.90;;;;;;4997568;28;20036;-82
2021/07/29 07:38:31;;;;;;;5.07;1.77;;;19.40;85.50;;;;;;5015654;28;20041;-83
2021/07/29 07:41:02;;;;;;;1.98;1.05;;;19.90;86.10;;;;;;4999777;28;20076;-85
2021/07/29 07:43:27;;;;;;;3.92;1.30;;;20.00;86.00;;;;;;4993343;28;20034;-84
2021/07/29 07:45:53;;;;;;;9.45;1.58;;;20.40;85.80;;;;;;5015666;28;20040;-84
2021/07/29 07:48:19;;;;;;;2.20;1.02;;;20.40;83.30;;;;;;5019680;28;20041;-84
2021/07/29 07:50:44;;;;;;;4.25;1.05;;;20.30;83.70;;;;;;5002603;28;20026;-84
2021/07/29 07:53:10;;;;;;;6.78;1.50;;;20.60;84.40;;;;;;4996550;28;20042;-84
2021/07/29 07:55:35;;;;;;;5.03;1.52;;;21.00;83.70;;;;;;4998034;28;20120;-84
2021/07/29 07:58:01;;;;;;;6.38;1.33;;;20.90;82.70;;;;;;5022305;28;20029;-84
2021/07/29 08:00:27;;;;;;;4.60;1.02;;;20.90;83.20;;;;;;5000897;28;20032;-84
2021/07/29 08:02:52;;;;;;;6.30;1.05;;;20.80;82.80;;;;;;4998750;28;20036;-85
2021/07/29 08:05:18;;;;;;;4.65;1.30;;;20.80;82.80;;;;;;5006923;28;20570;-85
2021/07/29 08:07:43;;;;;;;4.00;1.05;;;20.60;81.90;;;;;;4992747;28;20092;-85
2021/07/29 08:10:11;;;;;;;8.80;1.77;;;20.50;82.50;;;;;;5018523;28;20025;-84
2021/07/29 08:12:36;;;;;;;9.50;1.20;;;20.70;83.70;;;;;;4993457;28;20041;-84
2021/07/29 08:15:02;;;;;;;5.70;1.60;;;20.50;82.60;;;;;;4995571;28;20036;-84
2021/07/29 08:17:27;;;;;;;4.97;1.02;;;20.60;82.30;;;;;;5000314;28;20431;-84
2021/07/29 08:19:53;;;;;;;5.00;1.23;;;20.80;81.80;;;;;;4998930;28;20518;-85
2021/07/29 08:22:18;;;;;;;5.47;1.48;;;21.00;81.30;;;;;;4993265;28;20161;-84
2021/07/29 08:24:44;;;;;;;2.97;1.27;;;21.10;80.40;;;;;;4998623;28;20033;-85
2021/07/29 08:27:10;;;;;;;4.55;1.23;;;21.10;80.80;;;;;;4998421;28;20044;-85
2021/07/29 08:29:35;;;;;;;7.00;1.80;;;21.30;79.30;;;;;;4998121;28;20033;-84
2021/07/29 08:32:02;;;;;;;5.30;1.48;;;21.40;79.00;;;;;;5021227;28;20033;-85
2021/07/29 08:34:27;;;;;;;6.53;1.20;;;21.50;77.60;;;;;;5017859;28;20057;-84
2021/07/29 08:36:53;;;;;;;5.95;1.40;;;21.30;78.30;;;;;;5024582;28;20065;-84
2021/07/29 08:39:19;;;;;;;2.70;0.93;;;21.70;78.80;;;;;;5027323;28;20029;-84
2021/07/29 08:41:45;;;;;;;2.42;0.95;;;22.10;77.10;;;;;;5003509;28;20029;-84
2021/07/29 08:44:10;;;;;;;3.30;1.05;;;22.20;76.10;;;;;;5002856;28;20030;-85
2021/07/29 08:46:36;;;;;;;3.13;1.17;;;22.50;77.50;;;;;;5006279;28;20504;-84
2021/07/29 08:49:02;;;;;;;5.60;1.63;;;22.20;75.30;;;;;;4998742;28;20028;-85
2021/07/29 08:51:28;;;;;;;1.88;0.93;;;22.70;76.00;;;;;;5009105;28;20122;-85
2021/07/29 08:53:53;;;;;;;4.63;1.23;;;22.80;75.10;;;;;;4991544;28;20498;-86
2021/07/29 08:56:28;;;;;;;3.42;1.25;;;22.40;75.70;;;;;;5022562;28;20220;-86
2021/07/29 08:58:54;;;;;;;2.10;1.05;;;22.70;76.70;;;;;;5006329;28;20523;-85
2021/07/29 09:01:19;;;;;;;5.15;1.42;;;22.40;73.20;;;;;;5021140;28;20290;-85
2021/07/29 09:03:45;;;;;;;1.85;1.25;;;22.50;74.70;;;;;;4993524;28;20029;-85
2021/07/29 09:06:12;;;;;;;1.38;1.10;;;22.70;71.00;;;;;;4990873;28;20060;-85
2021/07/29 09:08:56;;;;;;;2.67;0.85;;;22.90;71.90;;;;;;5007737;28;20572;-85
2021/07/29 09:11:33;;;;;;;2.50;1.33;;;23.20;70.90;;;;;;4989508;28;20145;-85
2021/07/29 09:14:03;;;;;;;3.92;1.40;;;23.40;71.90;;;;;;5018651;28;20528;-85
2021/07/29 09:16:28;;;;;;;5.97;1.60;;;23.50;70.00;;;;;;5017540;28;20036;-85
2021/07/29 09:18:54;;;;;;;5.22;2.17;;;23.90;71.00;;;;;;5008247;28;20120;-85
2021/07/29 09:21:19;;;;;;;2.45;1.10;;;24.00;70.30;;;;;;5015775;28;20041;-87
2021/07/29 09:24:01;;;;;;;3.20;1.17;;;23.90;68.80;;;;;;4989913;28;20467;-86
2021/07/29 09:26:27;;;;;;;4.72;1.30;;;23.80;65.80;;;;;;5004114;28;20169;-87
2021/07/29 09:28:52;;;;;;;5.30;1.73;;;23.30;68.20;;;;;;5006967;28;20463;-86
2021/07/29 09:31:22;;;;;;;4.75;1.85;;;23.60;68.40;;;;;;4994918;28;20030;-87
2021/07/29 09:33:57;;;;;;;4.05;1.30;;;23.40;69.10;;;;;;4975329;28;20021;-86
2021/07/29 09:36:24;;;;;;;4.70;1.10;;;23.60;69.00;;;;;;4992908;28;20111;-86
2021/07/29 09:38:50;;;;;;;4.05;1.33;;;23.60;68.50;;;;;;4983324;28;20511;-86
2021/07/29 09:41:26;;;;;;;4.82;1.35;;;23.50;70.40;;;;;;5014940;28;20104;-87
2021/07/29 09:43:54;;;;;;;1.65;0.80;;;23.70;68.80;;;;;;5001393;28;20045;-88
2021/07/29 09:46:20;;;;;;;3.22;1.27;;;24.00;67.40;;;;;;5031243;28;20124;-87
2021/07/29 09:48:46;;;;;;;6.55;1.42;;;24.10;66.10;;;;;;4996298;28;20167;-89
2021/07/29 09:51:12;;;;;;;2.67;1.27;;;24.20;67.20;;;;;;4978704;28;20456;-86
2021/07/29 09:53:37;;;;;;;2.40;1.00;;;24.50;67.10;;;;;;5014869;28;20038;-88
2021/07/29 09:56:10;;;;;;;2.58;0.70;;;24.40;65.80;;;;;;4997607;28;20115;-88
2021/07/29 09:58:36;;;;;;;8.38;1.38;;;24.50;64.80;;;;;;5018579;28;20037;-85
2021/07/29 10:01:02;;;;;;;4.05;1.55;;;24.60;65.00;;;;;;5017193;28;20059;-88
2021/07/29 10:03:28;;;;;;;1.95;1.00;;;24.80;64.90;;;;;;4999714;28;20168;-86
2021/07/29 10:05:58;;;;;;;5.68;1.55;;;24.80;63.70;;;;;;5010691;28;20523;-87
2021/07/29 10:08:48;;;;;;;5.80;0.98;;;24.30;63.60;;;;;;4994574;28;20276;-85
2021/07/29 10:11:44;;;;;;;2.92;1.45;;;24.70;62.50;;;;;;5001216;28;20420;-88
2021/07/29 10:14:10;;;;;;;4.72;1.20;;;25.30;62.60;;;;;;5010890;28;20029;-86
2021/07/29 10:16:50;;;;;;;3.78;1.40;;;25.00;61.40;;;;;;5011939;28;20036;-88
2021/07/29 10:19:16;;;;;;;5.90;1.52;;;24.90;62.20;;;;;;4997580;28;20408;-88
2021/07/29 10:21:44;;;;;;;6.45;1.40;;;24.80;61.90;;;;;;4994471;28;20032;-87
2021/07/29 10:24:10;;;;;;;3.88;1.20;;;24.70;63.30;;;;;;5005124;28;20033;-86
2021/07/29 10:26:55;;;;;;;2.38;0.90;;;24.80;63.70;;;;;;4992313;28;20374;-88
2021/07/29 10:29:27;;;;;;;4.63;1.48;;;24.80;61.70;;;;;;5020650;28;20583;-86
2021/07/29 10:32:02;;;;;;;4.43;1.60;;;25.10;62.40;;;;;;5003829;28;20089;-85
2021/07/29 10:34:29;;;;;;;4.05;0.80;;;25.00;61.20;;;;;;5001456;28;20025;-86
2021/07/29 10:36:56;;;;;;;8.50;1.48;;;25.00;61.40;;;;;;4986097;28;20044;-87
2021/07/29 10:39:21;;;;;;;3.33;1.27;;;25.40;61.70;;;;;;5007459;28;20033;-87
2021/07/29 10:41:49;;;;;;;5.32;1.02;;;25.60;59.80;;;;;;4996206;28;20022;-85
2021/07/29 10:44:35;;;;;;;5.40;0.95;;;25.80;60.30;;;;;;5009024;28;20029;-87
2021/07/29 10:47:07;;;;;;;1.40;0.93;;;26.20;59.60;;;;;;5005046;28;20037;-85
2021/07/29 10:49:45;;;;;;;5.80;1.58;;;26.20;58.50;;;;;;5012133;28;20045;-86
2021/07/29 10:52:14;;;;;;;1.75;0.90;;;25.80;59.00;;;;;;5020825;28;20412;-86
2021/07/29 10:54:43;;;;;;;4.03;1.23;;;25.90;57.90;;;;;;4992095;28;20432;-86
2021/07/29 10:57:10;;;;;;;4.28;1.15;;;26.20;57.40;;;;;;5013809;28;20519;-85
2021/07/29 10:59:35;;;;;;;6.45;1.40;;;26.70;59.90;;;;;;5001612;28;20032;-85
2021/07/29 11:02:04;;;;;;;3.08;0.82;;;27.20;56.80;;;;;;4995346;28;20038;-86
2021/07/29 11:04:30;;;;;;;4.90;1.42;;;27.20;56.10;;;;;;5016059;28;20618;-85
2021/07/29 11:07:01;;;;;;;3.63;1.70;;;26.90;54.80;;;;;;5015619;28;20029;-83
2021/07/29 11:09:30;;;;;;;3.13;1.00;;;26.60;55.60;;;;;;5002626;28;20033;-85
2021/07/29 11:11:56;;;;;;;5.60;0.73;;;27.20;55.80;;;;;;4996381;28;20029;-84
2021/07/29 11:14:24;;;;;;;4.70;1.05;;;27.10;54.10;;;;;;5015446;28;20496;-84
2021/07/29 11:16:50;;;;;;;5.65;1.40;;;27.00;54.40;;;;;;5000094;28;20037;-85
2021/07/29 11:19:16;;;;;;;3.88;1.17;;;27.40;55.00;;;;;;5006146;28;20036;-83
2021/07/29 11:21:41;;;;;;;5.25;1.73;;;27.60;53.90;;;;;;5015260;28;20034;-84
2021/07/29 11:24:23;;;;;;;4.28;1.27;;;27.60;53.30;;;;;;4996665;28;20328;-83
2021/07/29 11:26:49;;;;;;;2.65;1.08;;;28.20;53.80;;;;;;5030071;28;20057;-84
2021/07/29 11:29:14;;;;;;;2.78;1.27;;;28.40;52.90;;;;;;5009410;28;20126;-83
2021/07/29 11:31:40;;;;;;;3.47;1.20;;;28.60;52.30;;;;;;5014211;28;20052;-84
2021/07/29 11:34:06;;;;;;;2.75;1.20;;;28.40;51.50;;;;;;5015411;28;20138;-83
2021/07/29 11:36:32;;;;;;;1.77;0.90;;;28.20;52.40;;;;;;4999950;28;20033;-82
2021/07/29 11:39:04;;;;;;;2.97;1.20;;;28.10;51.80;;;;;;4998542;28;20432;-82
2021/07/29 11:41:31;;;;;;;3.15;1.58;;;28.00;53.10;;;;;;4993754;28;20037;-82
2021/07/29 11:43:59;;;;;;;4.25;1.80;;;27.70;54.70;;;;;;4990719;28;20045;-82
2021/07/29 11:46:25;;;;;;;4.45;1.27;;;27.70;53.10;;;;;;5015557;28;20038;-82
2021/07/29 11:49:02;;;;;;;4.53;1.80;;;27.70;54.80;;;;;;5002482;28;20517;-82
2021/07/29 11:51:28;;;;;;;4.95;1.00;;;27.80;54.10;;;;;;5027614;28;20505;-81
2021/07/29 11:53:53;;;;;;;3.20;1.17;;;27.40;53.50;;;;;;5003972;28;20100;-81
2021/07/29 11:56:19;;;;;;;4.47;1.63;;;27.30;54.20;;;;;;5011081;28;20593;-80
2021/07/29 11:58:56;;;;;;;2.95;1.38;;;27.20;53.40;;;;;;5010406;28;20101;-82
2021/07/29 12:01:22;;;;;;;4.22;1.45;;;27.20;53.30;;;;;;4985343;28;20552;-83
2021/07/29 12:03:48;;;;;;;5.95;1.98;;;27.30;53.90;;;;;;5001835;28;20045;-81
2021/07/29 12:06:15;;;;;;;5.80;1.65;;;27.30;53.90;;;;;;4997682;28;20391;-82
2021/07/29 12:08:41;;;;;;;2.92;1.10;;;27.50;53.50;;;;;;4999701;28;20025;-82
2021/07/29 12:11:07;;;;;;;3.10;1.33;;;27.60;53.60;;;;;;5007608;28;20061;-82
2021/07/29 12:13:32;;;;;;;3.55;1.30;;;27.60;52.90;;;;;;5022133;28;20623;-76
2021/07/29 12:15:58;;;;;;;1.98;1.30;;;27.70;51.60;;;;;;4991647;28;20160;-77
2021/07/29 12:18:23;;;;;;;3.47;1.40;;;27.70;51.10;;;;;;5011388;28;20488;-78
2021/07/29 12:20:58;;;;;;;3.15;1.27;;;27.60;50.90;;;;;;4995932;28;20443;-77
2021/07/29 12:23:24;;;;;;;6.05;1.95;;;27.80;51.10;;;;;;5002038;28;20334;-76
2021/07/29 12:25:50;;;;;;;1.50;1.23;;;27.90;52.20;;;;;;4315421;28;10000097;-79
2021/07/29 12:28:19;;;;;;;1.25;0.90;;;28.00;51.40;;;;;;5017753;28;20107;-77
2021/07/29 12:30:46;;;;;;;3.75;1.00;;;28.10;50.50;;;;;;5000787;28;20757;-79
2021/07/29 12:33:22;;;;;;;3.92;1.33;;;28.00;50.60;;;;;;4995625;28;20036;-78
2021/07/29 12:36:01;;;;;;;3.15;1.02;;;28.10;50.30;;;;;;5014376;28;20038;-78
2021/07/29 12:38:36;;;;;;;1.27;0.98;;;28.30;49.30;;;;;;5008874;28;20600;-77
2021/07/29 12:41:02;;;;;;;4.70;1.23;;;28.30;49.00;;;;;;5006648;28;20401;-77
2021/07/29 12:43:28;;;;;;;4.28;1.10;;;28.50;48.40;;;;;;5008746;28;20275;-77